sensor_id;sensor_type;location;lat;lon;timestamp;P1;durP1;ratioP1;P2;durP2;ratioP2
41719;SDS011;27405;53.316;-6.294;2023-12-29T00:01:58;17.08;;;3.15;;
41719;SDS011;27405;53.316;-6.294;2023-12-29T00:04:25;25.10;;;3.80;;
41719;SDS011;27405;53.316;-6.294;2023-12-29T00:06:51;26.05;;;3.83;;
41719;SDS011;27405;53.316;-6.294;2023-12-29T00:09:17;22.15;;;3.63;;
41719;SDS011;27405;53.316;-6.294;2023-12-29T00:11:46;24.10;;;3.57;;
41719;SDS011;27405;53.316;-6.294;2023-12-29T00:14:12;25.83;;;3.72;;
41719;SDS011;27405;53.316;-6.294;2023-12-29T00:16:38;20.70;;;4.32;;
41719;SDS011;27405;53.316;-6.294;2023-12-29T00:19:03;21.50;;;3.47;;
41719;SDS011;27405;53.316;-6.294;2023-12-29T00:21:29;20.17;;;3.38;;
41719;SDS011;27405;53.316;-6.294;2023-12-29T00:23:55;24.58;;;4.50;;
41719;SDS011;27405;53.316;-6.294;2023-12-29T00:26:21;27.15;;;3.97;;
41719;SDS011;27405;53.316;-6.294;2023-12-29T00:28:47;25.27;;;4.63;;
41719;SDS011;27405;53.316;-6.294;2023-12-29T00:31:16;27.20;;;4.20;;
41719;SDS011;27405;53.316;-6.294;2023-12-29T00:33:44;24.75;;;4.28;;
41719;SDS011;27405;53.316;-6.294;2023-12-29T00:36:17;16.52;;;3.20;;
41719;SDS011;27405;53.316;-6.294;2023-12-29T00:38:43;18.83;;;3.42;;
41719;SDS011;27405;53.316;-6.294;2023-12-29T00:41:09;26.17;;;4.10;;
41719;SDS011;27405;53.316;-6.294;2023-12-29T00:43:35;21.80;;;3.42;;
41719;SDS011;27405;53.316;-6.294;2023-12-29T00:46:01;21.15;;;4.22;;
41719;SDS011;27405;53.316;-6.294;2023-12-29T00:48:28;19.55;;;3.33;;
41719;SDS011;27405;53.316;-6.294;2023-12-29T00:50:54;20.80;;;3.22;;
41719;SDS011;27405;53.316;-6.294;2023-12-29T00:53:20;24.77;;;3.65;;
41719;SDS011;27405;53.316;-6.294;2023-12-29T00:55:45;29.75;;;4.15;;
41719;SDS011;27405;53.316;-6.294;2023-12-29T00:58:11;19.92;;;2.90;;
41719;SDS011;27405;53.316;-6.294;2023-12-29T01:00:37;20.10;;;3.45;;
41719;SDS011;27405;53.316;-6.294;2023-12-29T01:03:03;18.13;;;3.80;;
41719;SDS011;27405;53.316;-6.294;2023-12-29T01:05:28;23.88;;;4.47;;
41719;SDS011;27405;53.316;-6.294;2023-12-29T01:07:54;20.65;;;3.53;;
41719;SDS011;27405;53.316;-6.294;2023-12-29T01:10:20;19.08;;;3.60;;
41719;SDS011;27405;53.316;-6.294;2023-12-29T01:12:46;20.75;;;3.30;;
41719;SDS011;27405;53.316;-6.294;2023-12-29T01:15:12;21.55;;;3.30;;
41719;SDS011;27405;53.316;-6.294;2023-12-29T01:17:38;16.27;;;2.97;;
41719;SDS011;27405;53.316;-6.294;2023-12-29T01:20:04;29.63;;;3.80;;
41719;SDS011;27405;53.316;-6.294;2023-12-29T01:22:30;28.38;;;3.80;;
41719;SDS011;27405;53.316;-6.294;2023-12-29T01:24:58;26.55;;;4.13;;
41719;SDS011;27405;53.316;-6.294;2023-12-29T01:27:25;23.50;;;3.53;;
41719;SDS011;27405;53.316;-6.294;2023-12-29T01:29:50;20.38;;;3.60;;
41719;SDS011;27405;53.316;-6.294;2023-12-29T01:32:17;20.88;;;3.40;;
41719;SDS011;27405;53.316;-6.294;2023-12-29T01:34:43;22.35;;;3.60;;
41719;SDS011;27405;53.316;-6.294;2023-12-29T01:37:09;25.15;;;4.13;;
41719;SDS011;27405;53.316;-6.294;2023-12-29T01:39:35;23.30;;;3.97;;
41719;SDS011;27405;53.316;-6.294;2023-12-29T01:42:01;29.42;;;4.97;;
41719;SDS011;27405;53.316;-6.294;2023-12-29T01:44:26;25.35;;;3.95;;
41719;SDS011;27405;53.316;-6.294;2023-12-29T01:46:57;21.63;;;4.00;;
41719;SDS011;27405;53.316;-6.294;2023-12-29T01:49:24;29.75;;;4.47;;
41719;SDS011;27405;53.316;-6.294;2023-12-29T01:51:52;30.17;;;4.00;;
41719;SDS011;27405;53.316;-6.294;2023-12-29T01:54:20;19.50;;;2.95;;
41719;SDS011;27405;53.316;-6.294;2023-12-29T01:56:48;18.60;;;3.25;;
41719;SDS011;27405;53.316;-6.294;2023-12-29T01:59:15;19.50;;;3.97;;
41719;SDS011;27405;53.316;-6.294;2023-12-29T02:01:41;20.55;;;4.07;;
41719;SDS011;27405;53.316;-6.294;2023-12-29T02:04:08;24.27;;;3.78;;
41719;SDS011;27405;53.316;-6.294;2023-12-29T02:06:37;29.27;;;4.00;;
41719;SDS011;27405;53.316;-6.294;2023-12-29T02:09:04;18.35;;;3.28;;
41719;SDS011;27405;53.316;-6.294;2023-12-29T02:11:30;26.52;;;3.83;;
41719;SDS011;27405;53.316;-6.294;2023-12-29T02:13:56;18.35;;;3.67;;
41719;SDS011;27405;53.316;-6.294;2023-12-29T02:19:51;17.42;;;3.22;;
41719;SDS011;27405;53.316;-6.294;2023-12-29T02:22:04;20.58;;;3.63;;
41719;SDS011;27405;53.316;-6.294;2023-12-29T02:24:30;21.08;;;3.92;;
41719;SDS011;27405;53.316;-6.294;2023-12-29T02:26:57;25.90;;;3.65;;
41719;SDS011;27405;53.316;-6.294;2023-12-29T02:29:55;23.25;;;3.25;;
41719;SDS011;27405;53.316;-6.294;2023-12-29T02:32:30;24.75;;;4.18;;
41719;SDS011;27405;53.316;-6.294;2023-12-29T02:37:26;27.27;;;3.65;;
41719;SDS011;27405;53.316;-6.294;2023-12-29T02:39:54;26.05;;;4.10;;
41719;SDS011;27405;53.316;-6.294;2023-12-29T02:42:21;25.52;;;4.20;;
41719;SDS011;27405;53.316;-6.294;2023-12-29T02:44:47;33.28;;;5.22;;
41719;SDS011;27405;53.316;-6.294;2023-12-29T02:47:12;22.30;;;3.72;;
41719;SDS011;27405;53.316;-6.294;2023-12-29T02:49:38;23.42;;;3.85;;
41719;SDS011;27405;53.316;-6.294;2023-12-29T02:52:04;25.30;;;4.95;;
41719;SDS011;27405;53.316;-6.294;2023-12-29T02:54:30;21.73;;;3.80;;
41719;SDS011;27405;53.316;-6.294;2023-12-29T02:56:55;27.25;;;4.35;;
41719;SDS011;27405;53.316;-6.294;2023-12-29T02:59:21;16.23;;;3.58;;
41719;SDS011;27405;53.316;-6.294;2023-12-29T03:01:47;23.40;;;3.78;;
41719;SDS011;27405;53.316;-6.294;2023-12-29T03:04:12;28.63;;;3.90;;
41719;SDS011;27405;53.316;-6.294;2023-12-29T03:06:38;23.27;;;3.70;;
41719;SDS011;27405;53.316;-6.294;2023-12-29T03:09:06;31.00;;;4.63;;
41719;SDS011;27405;53.316;-6.294;2023-12-29T03:11:31;22.00;;;3.47;;
41719;SDS011;27405;53.316;-6.294;2023-12-29T03:13:57;24.55;;;4.05;;
41719;SDS011;27405;53.316;-6.294;2023-12-29T03:16:23;33.20;;;4.38;;
41719;SDS011;27405;53.316;-6.294;2023-12-29T03:18:48;22.73;;;3.55;;
41719;SDS011;27405;53.316;-6.294;2023-12-29T03:21:14;30.48;;;4.40;;
41719;SDS011;27405;53.316;-6.294;2023-12-29T03:23:40;26.58;;;4.65;;
41719;SDS011;27405;53.316;-6.294;2023-12-29T03:26:05;25.92;;;3.47;;
41719;SDS011;27405;53.316;-6.294;2023-12-29T03:28:31;22.45;;;3.75;;
41719;SDS011;27405;53.316;-6.294;2023-12-29T03:30:57;25.50;;;3.65;;
41719;SDS011;27405;53.316;-6.294;2023-12-29T03:33:22;27.67;;;4.40;;
41719;SDS011;27405;53.316;-6.294;2023-12-29T03:35:48;22.23;;;3.70;;
41719;SDS011;27405;53.316;-6.294;2023-12-29T03:38:14;28.40;;;4.05;;
41719;SDS011;27405;53.316;-6.294;2023-12-29T03:40:40;21.00;;;3.55;;
41719;SDS011;27405;53.316;-6.294;2023-12-29T03:43:05;26.38;;;4.07;;
41719;SDS011;27405;53.316;-6.294;2023-12-29T03:45:31;22.05;;;3.60;;
41719;SDS011;27405;53.316;-6.294;2023-12-29T03:47:57;26.48;;;4.10;;
41719;SDS011;27405;53.316;-6.294;2023-12-29T03:50:22;25.45;;;4.25;;
41719;SDS011;27405;53.316;-6.294;2023-12-29T03:52:48;25.67;;;4.07;;
41719;SDS011;27405;53.316;-6.294;2023-12-29T03:55:14;26.83;;;3.85;;
41719;SDS011;27405;53.316;-6.294;2023-12-29T03:57:41;26.92;;;4.50;;
41719;SDS011;27405;53.316;-6.294;2023-12-29T04:00:11;24.75;;;3.80;;
41719;SDS011;27405;53.316;-6.294;2023-12-29T04:02:37;24.48;;;4.40;;
41719;SDS011;27405;53.316;-6.294;2023-12-29T04:05:03;29.95;;;3.97;;
41719;SDS011;27405;53.316;-6.294;2023-12-29T04:07:31;25.85;;;4.32;;
41719;SDS011;27405;53.316;-6.294;2023-12-29T04:09:56;26.05;;;4.15;;
41719;SDS011;27405;53.316;-6.294;2023-12-29T04:12:22;26.95;;;4.35;;
41719;SDS011;27405;53.316;-6.294;2023-12-29T04:14:48;27.70;;;4.88;;
41719;SDS011;27405;53.316;-6.294;2023-12-29T04:17:13;34.08;;;4.88;;
41719;SDS011;27405;53.316;-6.294;2023-12-29T04:19:42;25.73;;;3.95;;
41719;SDS011;27405;53.316;-6.294;2023-12-29T04:22:08;25.27;;;4.72;;
41719;SDS011;27405;53.316;-6.294;2023-12-29T04:24:34;25.50;;;4.97;;
41719;SDS011;27405;53.316;-6.294;2023-12-29T04:26:59;23.85;;;3.38;;
41719;SDS011;27405;53.316;-6.294;2023-12-29T04:29:25;27.33;;;3.53;;
41719;SDS011;27405;53.316;-6.294;2023-12-29T04:31:51;33.13;;;4.32;;
41719;SDS011;27405;53.316;-6.294;2023-12-29T04:34:17;23.73;;;3.55;;
41719;SDS011;27405;53.316;-6.294;2023-12-29T04:36:42;24.20;;;4.18;;
41719;SDS011;27405;53.316;-6.294;2023-12-29T04:39:08;21.80;;;3.03;;
41719;SDS011;27405;53.316;-6.294;2023-12-29T04:41:36;19.35;;;3.35;;
41719;SDS011;27405;53.316;-6.294;2023-12-29T04:44:02;22.27;;;3.95;;
41719;SDS011;27405;53.316;-6.294;2023-12-29T04:46:28;27.17;;;4.10;;
41719;SDS011;27405;53.316;-6.294;2023-12-29T04:48:53;23.38;;;3.70;;
41719;SDS011;27405;53.316;-6.294;2023-12-29T04:51:19;27.58;;;4.00;;
41719;SDS011;27405;53.316;-6.294;2023-12-29T04:53:45;28.35;;;4.40;;
41719;SDS011;27405;53.316;-6.294;2023-12-29T04:56:11;27.45;;;3.90;;
41719;SDS011;27405;53.316;-6.294;2023-12-29T04:58:37;19.50;;;3.75;;
41719;SDS011;27405;53.316;-6.294;2023-12-29T05:01:03;22.95;;;3.60;;
41719;SDS011;27405;53.316;-6.294;2023-12-29T05:03:28;27.50;;;4.53;;
41719;SDS011;27405;53.316;-6.294;2023-12-29T05:05:55;33.33;;;4.55;;
41719;SDS011;27405;53.316;-6.294;2023-12-29T05:08:21;37.28;;;4.13;;
41719;SDS011;27405;53.316;-6.294;2023-12-29T05:10:46;28.45;;;4.43;;
41719;SDS011;27405;53.316;-6.294;2023-12-29T05:13:12;20.95;;;3.55;;
41719;SDS011;27405;53.316;-6.294;2023-12-29T05:15:38;25.77;;;3.80;;
41719;SDS011;27405;53.316;-6.294;2023-12-29T05:18:04;25.58;;;4.00;;
41719;SDS011;27405;53.316;-6.294;2023-12-29T05:20:30;24.02;;;3.78;;
41719;SDS011;27405;53.316;-6.294;2023-12-29T05:22:56;22.88;;;3.78;;
41719;SDS011;27405;53.316;-6.294;2023-12-29T05:25:22;27.48;;;4.35;;
41719;SDS011;27405;53.316;-6.294;2023-12-29T05:27:49;23.17;;;3.30;;
41719;SDS011;27405;53.316;-6.294;2023-12-29T05:32:40;26.98;;;4.15;;
41719;SDS011;27405;53.316;-6.294;2023-12-29T05:35:06;28.45;;;3.95;;
41719;SDS011;27405;53.316;-6.294;2023-12-29T05:37:32;28.27;;;4.50;;
41719;SDS011;27405;53.316;-6.294;2023-12-29T05:39:57;28.20;;;4.43;;
41719;SDS011;27405;53.316;-6.294;2023-12-29T05:42:23;23.55;;;3.38;;
41719;SDS011;27405;53.316;-6.294;2023-12-29T05:44:49;29.20;;;4.28;;
41719;SDS011;27405;53.316;-6.294;2023-12-29T05:47:17;27.50;;;4.18;;
41719;SDS011;27405;53.316;-6.294;2023-12-29T05:49:43;22.08;;;3.67;;
41719;SDS011;27405;53.316;-6.294;2023-12-29T05:52:08;26.55;;;3.90;;
41719;SDS011;27405;53.316;-6.294;2023-12-29T05:54:34;27.50;;;3.85;;
41719;SDS011;27405;53.316;-6.294;2023-12-29T05:57:00;21.83;;;3.55;;
41719;SDS011;27405;53.316;-6.294;2023-12-29T05:59:26;22.13;;;3.42;;
41719;SDS011;27405;53.316;-6.294;2023-12-29T06:01:52;29.50;;;4.57;;
41719;SDS011;27405;53.316;-6.294;2023-12-29T06:04:18;27.80;;;4.75;;
41719;SDS011;27405;53.316;-6.294;2023-12-29T06:06:43;25.10;;;4.32;;
41719;SDS011;27405;53.316;-6.294;2023-12-29T06:09:09;26.42;;;3.60;;
41719;SDS011;27405;53.316;-6.294;2023-12-29T06:11:35;24.80;;;3.17;;
41719;SDS011;27405;53.316;-6.294;2023-12-29T06:14:01;25.27;;;3.50;;
41719;SDS011;27405;53.316;-6.294;2023-12-29T06:16:28;24.98;;;3.83;;
41719;SDS011;27405;53.316;-6.294;2023-12-29T06:18:55;18.55;;;3.47;;
41719;SDS011;27405;53.316;-6.294;2023-12-29T06:21:21;25.23;;;4.55;;
41719;SDS011;27405;53.316;-6.294;2023-12-29T06:23:47;30.48;;;4.25;;
41719;SDS011;27405;53.316;-6.294;2023-12-29T06:26:14;25.95;;;3.63;;
41719;SDS011;27405;53.316;-6.294;2023-12-29T06:28:40;23.92;;;3.33;;
41719;SDS011;27405;53.316;-6.294;2023-12-29T06:31:06;26.58;;;3.80;;
41719;SDS011;27405;53.316;-6.294;2023-12-29T06:33:32;24.83;;;3.63;;
41719;SDS011;27405;53.316;-6.294;2023-12-29T06:35:58;24.77;;;3.92;;
41719;SDS011;27405;53.316;-6.294;2023-12-29T06:38:24;25.48;;;3.40;;
41719;SDS011;27405;53.316;-6.294;2023-12-29T06:40:49;24.85;;;3.95;;
41719;SDS011;27405;53.316;-6.294;2023-12-29T06:43:15;30.38;;;3.88;;
41719;SDS011;27405;53.316;-6.294;2023-12-29T06:45:41;25.30;;;3.92;;
41719;SDS011;27405;53.316;-6.294;2023-12-29T06:48:07;25.13;;;3.97;;
41719;SDS011;27405;53.316;-6.294;2023-12-29T06:50:32;28.65;;;4.82;;
41719;SDS011;27405;53.316;-6.294;2023-12-29T06:52:58;23.10;;;3.40;;
41719;SDS011;27405;53.316;-6.294;2023-12-29T06:55:24;20.55;;;3.30;;
41719;SDS011;27405;53.316;-6.294;2023-12-29T06:57:50;22.60;;;3.70;;
41719;SDS011;27405;53.316;-6.294;2023-12-29T07:00:16;23.25;;;3.33;;
41719;SDS011;27405;53.316;-6.294;2023-12-29T07:02:42;23.73;;;2.75;;
41719;SDS011;27405;53.316;-6.294;2023-12-29T07:05:08;29.50;;;4.25;;
41719;SDS011;27405;53.316;-6.294;2023-12-29T07:07:36;23.33;;;3.42;;
41719;SDS011;27405;53.316;-6.294;2023-12-29T07:12:28;18.08;;;2.78;;
41719;SDS011;27405;53.316;-6.294;2023-12-29T07:14:54;15.30;;;2.75;;
41719;SDS011;27405;53.316;-6.294;2023-12-29T07:17:20;15.95;;;2.53;;
41719;SDS011;27405;53.316;-6.294;2023-12-29T07:19:45;21.38;;;2.97;;
41719;SDS011;27405;53.316;-6.294;2023-12-29T07:22:11;20.10;;;2.60;;
41719;SDS011;27405;53.316;-6.294;2023-12-29T07:24:37;18.50;;;3.40;;
41719;SDS011;27405;53.316;-6.294;2023-12-29T07:27:03;24.05;;;3.05;;
41719;SDS011;27405;53.316;-6.294;2023-12-29T07:29:29;18.00;;;2.55;;
41719;SDS011;27405;53.316;-6.294;2023-12-29T07:31:55;23.33;;;2.70;;
41719;SDS011;27405;53.316;-6.294;2023-12-29T07:34:20;22.52;;;3.08;;
41719;SDS011;27405;53.316;-6.294;2023-12-29T07:36:46;21.27;;;2.92;;
41719;SDS011;27405;53.316;-6.294;2023-12-29T07:39:12;14.10;;;2.63;;
41719;SDS011;27405;53.316;-6.294;2023-12-29T07:41:41;20.38;;;3.45;;
41719;SDS011;27405;53.316;-6.294;2023-12-29T07:44:07;22.10;;;3.03;;
41719;SDS011;27405;53.316;-6.294;2023-12-29T07:46:37;26.70;;;4.10;;
41719;SDS011;27405;53.316;-6.294;2023-12-29T07:49:04;23.42;;;3.25;;
41719;SDS011;27405;53.316;-6.294;2023-12-29T07:51:29;28.52;;;4.05;;
41719;SDS011;27405;53.316;-6.294;2023-12-29T07:53:55;25.65;;;3.85;;
41719;SDS011;27405;53.316;-6.294;2023-12-29T07:56:21;22.33;;;3.58;;
41719;SDS011;27405;53.316;-6.294;2023-12-29T07:58:47;25.48;;;4.20;;
41719;SDS011;27405;53.316;-6.294;2023-12-29T08:01:12;24.25;;;3.95;;
41719;SDS011;27405;53.316;-6.294;2023-12-29T08:03:38;25.13;;;3.65;;
41719;SDS011;27405;53.316;-6.294;2023-12-29T08:06:04;22.60;;;2.67;;
41719;SDS011;27405;53.316;-6.294;2023-12-29T08:08:30;22.02;;;3.88;;
41719;SDS011;27405;53.316;-6.294;2023-12-29T08:10:56;29.85;;;3.67;;
41719;SDS011;27405;53.316;-6.294;2023-12-29T08:13:21;27.38;;;3.40;;
41719;SDS011;27405;53.316;-6.294;2023-12-29T08:15:47;17.92;;;3.00;;
41719;SDS011;27405;53.316;-6.294;2023-12-29T08:18:13;22.58;;;2.83;;
41719;SDS011;27405;53.316;-6.294;2023-12-29T08:20:38;24.95;;;3.67;;
41719;SDS011;27405;53.316;-6.294;2023-12-29T08:23:04;24.27;;;3.58;;
41719;SDS011;27405;53.316;-6.294;2023-12-29T08:25:30;18.95;;;3.80;;
41719;SDS011;27405;53.316;-6.294;2023-12-29T08:27:56;20.35;;;3.47;;
41719;SDS011;27405;53.316;-6.294;2023-12-29T08:30:22;19.38;;;3.13;;
41719;SDS011;27405;53.316;-6.294;2023-12-29T08:32:47;28.83;;;3.70;;
41719;SDS011;27405;53.316;-6.294;2023-12-29T08:35:13;28.80;;;4.03;;
41719;SDS011;27405;53.316;-6.294;2023-12-29T08:37:38;22.20;;;3.88;;
41719;SDS011;27405;53.316;-6.294;2023-12-29T08:40:04;28.58;;;3.40;;
41719;SDS011;27405;53.316;-6.294;2023-12-29T08:42:31;20.27;;;3.60;;
41719;SDS011;27405;53.316;-6.294;2023-12-29T08:44:58;17.90;;;2.90;;
41719;SDS011;27405;53.316;-6.294;2023-12-29T08:47:24;22.58;;;3.25;;
41719;SDS011;27405;53.316;-6.294;2023-12-29T08:49:50;23.30;;;3.15;;
41719;SDS011;27405;53.316;-6.294;2023-12-29T08:52:16;23.95;;;3.45;;
41719;SDS011;27405;53.316;-6.294;2023-12-29T08:54:41;24.85;;;3.88;;
41719;SDS011;27405;53.316;-6.294;2023-12-29T08:57:07;26.50;;;3.42;;
41719;SDS011;27405;53.316;-6.294;2023-12-29T08:59:35;17.55;;;3.00;;
41719;SDS011;27405;53.316;-6.294;2023-12-29T09:02:00;21.25;;;3.40;;
41719;SDS011;27405;53.316;-6.294;2023-12-29T09:04:26;20.63;;;3.30;;
41719;SDS011;27405;53.316;-6.294;2023-12-29T09:06:52;20.50;;;3.05;;
41719;SDS011;27405;53.316;-6.294;2023-12-29T09:09:18;25.35;;;3.22;;
41719;SDS011;27405;53.316;-6.294;2023-12-29T09:11:45;18.83;;;2.85;;
41719;SDS011;27405;53.316;-6.294;2023-12-29T09:14:12;28.50;;;3.78;;
41719;SDS011;27405;53.316;-6.294;2023-12-29T09:16:38;21.00;;;3.22;;
41719;SDS011;27405;53.316;-6.294;2023-12-29T09:19:05;18.05;;;3.20;;
41719;SDS011;27405;53.316;-6.294;2023-12-29T09:21:30;21.52;;;3.88;;
41719;SDS011;27405;53.316;-6.294;2023-12-29T09:23:56;20.38;;;2.90;;
41719;SDS011;27405;53.316;-6.294;2023-12-29T09:26:23;18.92;;;3.50;;
41719;SDS011;27405;53.316;-6.294;2023-12-29T09:28:49;20.40;;;2.25;;
41719;SDS011;27405;53.316;-6.294;2023-12-29T09:31:16;16.10;;;2.50;;
41719;SDS011;27405;53.316;-6.294;2023-12-29T09:33:41;20.58;;;3.00;;
41719;SDS011;27405;53.316;-6.294;2023-12-29T09:36:07;23.90;;;3.30;;
41719;SDS011;27405;53.316;-6.294;2023-12-29T09:38:33;21.48;;;2.97;;
41719;SDS011;27405;53.316;-6.294;2023-12-29T09:40:59;19.17;;;2.53;;
41719;SDS011;27405;53.316;-6.294;2023-12-29T09:43:30;19.55;;;2.65;;
41719;SDS011;27405;53.316;-6.294;2023-12-29T09:45:56;22.92;;;3.28;;
41719;SDS011;27405;53.316;-6.294;2023-12-29T09:48:24;15.82;;;2.58;;
41719;SDS011;27405;53.316;-6.294;2023-12-29T09:50:52;23.42;;;2.75;;
41719;SDS011;27405;53.316;-6.294;2023-12-29T09:53:19;16.23;;;2.85;;
41719;SDS011;27405;53.316;-6.294;2023-12-29T09:55:48;22.45;;;2.88;;
41719;SDS011;27405;53.316;-6.294;2023-12-29T09:58:15;23.58;;;3.38;;
41719;SDS011;27405;53.316;-6.294;2023-12-29T10:00:43;23.00;;;2.77;;
41719;SDS011;27405;53.316;-6.294;2023-12-29T10:03:11;13.45;;;2.95;;
41719;SDS011;27405;53.316;-6.294;2023-12-29T10:05:37;16.50;;;2.42;;
41719;SDS011;27405;53.316;-6.294;2023-12-29T10:08:03;19.63;;;3.15;;
41719;SDS011;27405;53.316;-6.294;2023-12-29T10:10:33;17.55;;;2.75;;
41719;SDS011;27405;53.316;-6.294;2023-12-29T10:13:00;15.65;;;2.70;;
41719;SDS011;27405;53.316;-6.294;2023-12-29T10:18:18;14.30;;;2.30;;
41719;SDS011;27405;53.316;-6.294;2023-12-29T10:26:38;14.73;;;1.98;;
41719;SDS011;27405;53.316;-6.294;2023-12-29T10:29:05;12.85;;;2.20;;
41719;SDS011;27405;53.316;-6.294;2023-12-29T10:31:32;15.45;;;1.77;;
41719;SDS011;27405;53.316;-6.294;2023-12-29T10:36:49;13.63;;;1.43;;
41719;SDS011;27405;53.316;-6.294;2023-12-29T10:39:15;1.90;;;0.70;;
41719;SDS011;27405;53.316;-6.294;2023-12-29T10:41:41;5.88;;;0.77;;
41719;SDS011;27405;53.316;-6.294;2023-12-29T10:44:07;4.35;;;0.95;;
41719;SDS011;27405;53.316;-6.294;2023-12-29T10:46:33;5.03;;;0.75;;
41719;SDS011;27405;53.316;-6.294;2023-12-29T10:51:38;3.08;;;1.08;;
41719;SDS011;27405;53.316;-6.294;2023-12-29T10:54:04;4.28;;;0.90;;
41719;SDS011;27405;53.316;-6.294;2023-12-29T10:56:31;2.70;;;0.75;;
41719;SDS011;27405;53.316;-6.294;2023-12-29T10:59:01;1.20;;;0.57;;
41719;SDS011;27405;53.316;-6.294;2023-12-29T11:01:34;3.10;;;0.70;;
41719;SDS011;27405;53.316;-6.294;2023-12-29T11:04:01;2.17;;;0.60;;
41719;SDS011;27405;53.316;-6.294;2023-12-29T11:06:29;3.60;;;0.70;;
41719;SDS011;27405;53.316;-6.294;2023-12-29T11:09:04;0.73;;;0.40;;
41719;SDS011;27405;53.316;-6.294;2023-12-29T11:11:30;3.25;;;0.70;;
41719;SDS011;27405;53.316;-6.294;2023-12-29T11:13:57;1.98;;;0.70;;
41719;SDS011;27405;53.316;-6.294;2023-12-29T11:16:23;2.78;;;0.68;;
41719;SDS011;27405;53.316;-6.294;2023-12-29T11:18:50;2.47;;;0.80;;
41719;SDS011;27405;53.316;-6.294;2023-12-29T11:21:18;1.88;;;0.80;;
41719;SDS011;27405;53.316;-6.294;2023-12-29T11:23:46;5.13;;;0.93;;
41719;SDS011;27405;53.316;-6.294;2023-12-29T11:26:12;5.65;;;2.00;;
41719;SDS011;27405;53.316;-6.294;2023-12-29T11:28:38;2.25;;;0.70;;
41719;SDS011;27405;53.316;-6.294;2023-12-29T11:31:04;5.32;;;0.80;;
41719;SDS011;27405;53.316;-6.294;2023-12-29T11:33:31;1.40;;;0.60;;
41719;SDS011;27405;53.316;-6.294;2023-12-29T11:36:15;1.50;;;0.60;;
41719;SDS011;27405;53.316;-6.294;2023-12-29T11:38:54;3.35;;;0.90;;
41719;SDS011;27405;53.316;-6.294;2023-12-29T11:41:47;2.47;;;0.80;;
41719;SDS011;27405;53.316;-6.294;2023-12-29T11:44:24;1.48;;;0.77;;
41719;SDS011;27405;53.316;-6.294;2023-12-29T11:46:55;2.67;;;0.88;;
41719;SDS011;27405;53.316;-6.294;2023-12-29T11:49:25;3.17;;;1.00;;
41719;SDS011;27405;53.316;-6.294;2023-12-29T11:51:51;2.30;;;0.70;;
41719;SDS011;27405;53.316;-6.294;2023-12-29T11:54:23;1.95;;;0.73;;
41719;SDS011;27405;53.316;-6.294;2023-12-29T11:56:50;2.05;;;0.93;;
41719;SDS011;27405;53.316;-6.294;2023-12-29T11:59:24;1.92;;;0.77;;
41719;SDS011;27405;53.316;-6.294;2023-12-29T12:01:52;3.72;;;1.00;;
41719;SDS011;27405;53.316;-6.294;2023-12-29T12:12:48;3.03;;;0.82;;
41719;SDS011;27405;53.316;-6.294;2023-12-29T12:18:10;3.42;;;0.90;;
41719;SDS011;27405;53.316;-6.294;2023-12-29T12:20:38;4.32;;;1.00;;
41719;SDS011;27405;53.316;-6.294;2023-12-29T12:23:25;4.53;;;0.90;;
41719;SDS011;27405;53.316;-6.294;2023-12-29T12:25:51;4.53;;;0.80;;
41719;SDS011;27405;53.316;-6.294;2023-12-29T12:28:24;4.55;;;0.95;;
41719;SDS011;27405;53.316;-6.294;2023-12-29T12:30:50;3.10;;;1.08;;
41719;SDS011;27405;53.316;-6.294;2023-12-29T12:33:16;4.82;;;0.82;;
41719;SDS011;27405;53.316;-6.294;2023-12-29T12:35:41;3.00;;;0.90;;
41719;SDS011;27405;53.316;-6.294;2023-12-29T12:40:50;2.70;;;0.80;;
41719;SDS011;27405;53.316;-6.294;2023-12-29T12:43:16;3.15;;;0.60;;
41719;SDS011;27405;53.316;-6.294;2023-12-29T12:45:47;3.97;;;0.68;;
41719;SDS011;27405;53.316;-6.294;2023-12-29T12:48:22;2.28;;;0.80;;
41719;SDS011;27405;53.316;-6.294;2023-12-29T12:51:01;4.50;;;1.15;;
41719;SDS011;27405;53.316;-6.294;2023-12-29T12:53:28;9.40;;;2.35;;
41719;SDS011;27405;53.316;-6.294;2023-12-29T12:55:54;2.65;;;1.00;;
41719;SDS011;27405;53.316;-6.294;2023-12-29T12:58:20;4.82;;;2.17;;
41719;SDS011;27405;53.316;-6.294;2023-12-29T13:00:46;8.18;;;3.50;;
41719;SDS011;27405;53.316;-6.294;2023-12-29T13:03:13;8.27;;;2.72;;
41719;SDS011;27405;53.316;-6.294;2023-12-29T13:05:40;6.40;;;2.28;;
41719;SDS011;27405;53.316;-6.294;2023-12-29T13:08:06;5.43;;;2.00;;
41719;SDS011;27405;53.316;-6.294;2023-12-29T13:10:32;9.50;;;2.53;;
41719;SDS011;27405;53.316;-6.294;2023-12-29T13:12:58;7.28;;;1.70;;
41719;SDS011;27405;53.316;-6.294;2023-12-29T13:15:23;4.40;;;1.27;;
41719;SDS011;27405;53.316;-6.294;2023-12-29T13:17:50;4.15;;;1.50;;
41719;SDS011;27405;53.316;-6.294;2023-12-29T13:20:16;5.80;;;1.70;;
41719;SDS011;27405;53.316;-6.294;2023-12-29T13:22:42;6.63;;;1.85;;
41719;SDS011;27405;53.316;-6.294;2023-12-29T13:25:08;3.53;;;1.40;;
41719;SDS011;27405;53.316;-6.294;2023-12-29T13:27:38;2.53;;;0.90;;
41719;SDS011;27405;53.316;-6.294;2023-12-29T13:30:05;6.53;;;1.20;;
41719;SDS011;27405;53.316;-6.294;2023-12-29T13:32:31;5.50;;;1.42;;
41719;SDS011;27405;53.316;-6.294;2023-12-29T13:42:45;5.10;;;2.25;;
41719;SDS011;27405;53.316;-6.294;2023-12-29T13:45:13;4.80;;;2.00;;
41719;SDS011;27405;53.316;-6.294;2023-12-29T13:47:41;6.60;;;2.17;;
41719;SDS011;27405;53.316;-6.294;2023-12-29T13:50:10;5.68;;;2.05;;
41719;SDS011;27405;53.316;-6.294;2023-12-29T13:52:38;6.55;;;2.92;;
41719;SDS011;27405;53.316;-6.294;2023-12-29T13:55:06;6.15;;;2.35;;
41719;SDS011;27405;53.316;-6.294;2023-12-29T13:57:32;5.63;;;2.22;;
41719;SDS011;27405;53.316;-6.294;2023-12-29T14:10:35;9.35;;;1.60;;
41719;SDS011;27405;53.316;-6.294;2023-12-29T14:15:38;6.75;;;2.00;;
41719;SDS011;27405;53.316;-6.294;2023-12-29T14:20:52;7.57;;;2.20;;
41719;SDS011;27405;53.316;-6.294;2023-12-29T14:23:18;4.43;;;1.80;;
41719;SDS011;27405;53.316;-6.294;2023-12-29T14:25:44;6.97;;;1.65;;
41719;SDS011;27405;53.316;-6.294;2023-12-29T14:28:15;7.05;;;1.48;;
41719;SDS011;27405;53.316;-6.294;2023-12-29T14:30:47;13.05;;;1.70;;
41719;SDS011;27405;53.316;-6.294;2023-12-29T14:33:13;6.32;;;1.77;;
41719;SDS011;27405;53.316;-6.294;2023-12-29T14:35:38;10.40;;;1.90;;
41719;SDS011;27405;53.316;-6.294;2023-12-29T14:38:04;8.02;;;1.55;;
41719;SDS011;27405;53.316;-6.294;2023-12-29T14:40:30;9.23;;;1.70;;
41719;SDS011;27405;53.316;-6.294;2023-12-29T14:42:59;5.82;;;1.90;;
41719;SDS011;27405;53.316;-6.294;2023-12-29T14:45:25;10.70;;;2.28;;
41719;SDS011;27405;53.316;-6.294;2023-12-29T14:47:54;7.65;;;2.22;;
41719;SDS011;27405;53.316;-6.294;2023-12-29T14:50:23;8.95;;;2.33;;
41719;SDS011;27405;53.316;-6.294;2023-12-29T14:52:49;6.47;;;2.05;;
41719;SDS011;27405;53.316;-6.294;2023-12-29T14:55:14;10.35;;;2.03;;
41719;SDS011;27405;53.316;-6.294;2023-12-29T14:57:40;10.60;;;2.42;;
41719;SDS011;27405;53.316;-6.294;2023-12-29T15:00:06;7.15;;;2.40;;
41719;SDS011;27405;53.316;-6.294;2023-12-29T15:02:32;11.15;;;2.20;;
41719;SDS011;27405;53.316;-6.294;2023-12-29T15:04:57;9.13;;;2.47;;
41719;SDS011;27405;53.316;-6.294;2023-12-29T15:07:23;9.20;;;2.50;;
41719;SDS011;27405;53.316;-6.294;2023-12-29T15:09:54;14.75;;;2.20;;
41719;SDS011;27405;53.316;-6.294;2023-12-29T15:12:20;9.68;;;2.25;;
41719;SDS011;27405;53.316;-6.294;2023-12-29T15:14:45;10.38;;;2.20;;
41719;SDS011;27405;53.316;-6.294;2023-12-29T15:17:11;13.05;;;2.88;;
41719;SDS011;27405;53.316;-6.294;2023-12-29T15:19:37;11.05;;;2.85;;
41719;SDS011;27405;53.316;-6.294;2023-12-29T15:22:02;6.75;;;1.90;;
41719;SDS011;27405;53.316;-6.294;2023-12-29T15:24:28;9.50;;;2.15;;
41719;SDS011;27405;53.316;-6.294;2023-12-29T15:26:53;11.63;;;2.40;;